createdAt,value
2018-04-29T00:01:46.421Z,11.30
2018-04-29T00:04:14.603Z,14.33
2018-04-29T00:06:43.397Z,11.73
2018-04-29T00:09:12.280Z,12.80
2018-04-29T00:11:41.235Z,8.23
2018-04-29T00:14:10.060Z,8.30
2018-04-29T00:16:39.367Z,9.20
2018-04-29T00:19:09.168Z,11.60
2018-04-29T00:21:37.603Z,10.47
2018-04-29T00:24:07.358Z,10.50
2018-04-29T00:26:37.260Z,12.03
2018-04-29T00:29:06.280Z,10.63
2018-04-29T00:31:34.844Z,10.17
2018-04-29T00:34:03.961Z,10.63
2018-04-29T00:36:32.761Z,11.47
2018-04-29T00:39:01.612Z,10.07
2018-04-29T00:41:30.404Z,7.30
2018-04-29T00:43:58.717Z,11.00
2018-04-29T00:46:27.577Z,11.90
2018-04-29T00:48:56.497Z,10.97
2018-04-29T00:51:42.584Z,13.43
2018-04-29T00:54:10.716Z,13.57
2018-04-29T00:56:39.644Z,9.90
2018-04-29T00:59:08.346Z,12.03
2018-04-29T01:01:36.761Z,10.37
2018-04-29T01:04:06.273Z,9.30
2018-04-29T01:06:35.089Z,9.43
2018-04-29T01:09:03.932Z,10.20
2018-04-29T01:11:33.622Z,9.83
2018-04-29T01:14:02.403Z,13.10
2018-04-29T01:16:31.268Z,8.40
2018-04-29T01:18:59.591Z,11.20
2018-04-29T01:21:27.917Z,9.40
2018-04-29T01:23:56.735Z,9.83
2018-04-29T01:26:25.508Z,9.13
2018-04-29T01:28:54.012Z,9.03
2018-04-29T01:31:22.777Z,7.97
2018-04-29T01:33:51.557Z,7.40
2018-04-29T01:36:20.459Z,9.37
2018-04-29T01:38:49.139Z,12.27
2018-04-29T01:41:18.832Z,8.90
2018-04-29T01:43:46.948Z,12.13
2018-04-29T01:46:17.741Z,7.50
2018-04-29T01:48:46.501Z,6.03
2018-04-29T01:51:16.072Z,7.67
2018-04-29T01:53:44.408Z,7.87
2018-04-29T01:56:12.729Z,9.30
2018-04-29T01:58:40.969Z,9.47
2018-04-29T02:01:10.308Z,9.23
2018-04-29T02:03:39.372Z,7.33
2018-04-29T02:06:08.388Z,8.20
2018-04-29T02:08:36.736Z,6.27
2018-04-29T02:11:05.275Z,9.20
2018-04-29T02:13:33.548Z,6.03
2018-04-29T02:16:01.848Z,7.23
2018-04-29T02:18:30.487Z,10.33
2018-04-29T02:20:58.990Z,6.00
2018-04-29T02:23:27.760Z,7.33
2018-04-29T02:25:56.319Z,6.40
2018-04-29T02:28:25.120Z,6.30
2018-04-29T02:30:55.206Z,6.10
2018-04-29T02:33:24.987Z,6.20
2018-04-29T02:35:54.776Z,8.50
2018-04-29T02:38:27.248Z,7.70
2018-04-29T02:40:57.616Z,7.47
2018-04-29T02:43:27.258Z,7.07
2018-04-29T02:45:56.959Z,9.83
2018-04-29T02:48:26.153Z,7.00
2018-04-29T02:50:54.936Z,6.20
2018-04-29T02:53:23.804Z,5.40
2018-04-29T02:55:52.619Z,7.93
2018-04-29T02:58:21.770Z,9.67
2018-04-29T03:00:50.049Z,7.20
2018-04-29T03:03:18.896Z,7.80
2018-04-29T03:05:47.240Z,7.33
2018-04-29T03:08:16.296Z,8.47
2018-04-29T03:10:44.827Z,5.27
2018-04-29T03:13:13.428Z,14.07
2018-04-29T03:15:42.156Z,5.20
2018-04-29T03:18:11.845Z,12.53
2018-04-29T03:20:40.635Z,5.87
2018-04-29T03:23:09.579Z,9.63
2018-04-29T03:25:38.414Z,7.20
2018-04-29T03:28:06.906Z,6.03
2018-04-29T03:30:35.787Z,5.60
2018-04-29T03:33:04.676Z,8.43
2018-04-29T03:35:33.569Z,9.27
2018-04-29T03:38:01.631Z,6.33
2018-04-29T03:40:30.531Z,6.70
2018-04-29T03:42:59.415Z,5.10
2018-04-29T03:45:28.218Z,5.17
2018-04-29T03:47:56.503Z,7.13
2018-04-29T03:50:25.260Z,11.00
2018-04-29T03:52:55.640Z,10.20
2018-04-29T03:55:24.170Z,7.20
2018-04-29T03:58:10.894Z,8.30
2018-04-29T04:00:57.595Z,5.77
2018-04-29T04:03:43.307Z,6.60
2018-04-29T04:06:11.526Z,7.83
2018-04-29T04:08:40.344Z,7.20
2018-04-29T04:11:09.418Z,11.00
2018-04-29T04:13:38.357Z,11.53
2018-04-29T04:16:07.387Z,8.57
2018-04-29T04:18:36.247Z,7.27
2018-04-29T04:21:04.325Z,6.13
2018-04-29T04:23:33.071Z,5.57
2018-04-29T04:26:04.795Z,8.30
2018-04-29T04:28:33.611Z,8.00
2018-04-29T04:31:02.356Z,7.70
2018-04-29T04:33:30.422Z,7.03
2018-04-29T04:35:58.708Z,9.57
2018-04-29T04:38:28.171Z,7.73
2018-04-29T04:40:56.480Z,7.07
2018-04-29T04:43:26.256Z,8.33
2018-04-29T04:45:55.145Z,8.67
2018-04-29T04:48:24.105Z,6.43
2018-04-29T04:50:53.644Z,7.53
2018-04-29T04:53:26.116Z,10.03
2018-04-29T04:55:54.905Z,8.67
2018-04-29T04:58:22.997Z,8.27
2018-04-29T05:00:52.372Z,8.37
2018-04-29T05:03:20.787Z,11.40
2018-04-29T05:05:49.632Z,8.30
2018-04-29T05:08:18.785Z,6.97
2018-04-29T05:10:47.152Z,6.67
2018-04-29T05:13:15.388Z,9.33
2018-04-29T05:15:45.289Z,11.33
2018-04-29T05:18:14.047Z,8.13
2018-04-29T05:20:42.120Z,11.17
2018-04-29T05:23:11.764Z,9.20
2018-04-29T05:25:40.575Z,11.73
2018-04-29T05:28:08.647Z,11.60
2018-04-29T05:30:36.746Z,10.00
2018-04-29T05:33:06.275Z,9.40
2018-04-29T05:35:35.207Z,10.97
2018-04-29T05:38:04.001Z,11.67
2018-04-29T05:40:33.401Z,14.30
2018-04-29T05:43:02.118Z,10.73
2018-04-29T05:45:30.347Z,20.80
2018-04-29T05:47:59.148Z,11.13
2018-04-29T05:50:27.978Z,10.43
2018-04-29T05:52:57.344Z,11.07
2018-04-29T05:55:25.423Z,10.20
2018-04-29T05:57:55.424Z,11.60
2018-04-29T06:00:25.160Z,11.60
2018-04-29T06:02:55.348Z,10.70
2018-04-29T06:05:24.093Z,11.80
2018-04-29T06:07:52.958Z,10.67
2018-04-29T06:10:21.764Z,9.10
2018-04-29T06:12:50.488Z,13.20
2018-04-29T06:15:21.148Z,18.13
2018-04-29T06:17:50.053Z,14.07
2018-04-29T06:20:18.537Z,10.20
2018-04-29T06:22:47.432Z,11.13
2018-04-29T06:25:15.789Z,17.13
2018-04-29T06:27:44.103Z,14.80
2018-04-29T06:30:12.384Z,15.77
2018-04-29T06:32:44.849Z,16.53
2018-04-29T06:35:12.997Z,14.50
2018-04-29T06:37:41.168Z,16.00
2018-04-29T06:40:10.052Z,12.03
2018-04-29T06:42:38.249Z,19.00
2018-04-29T06:45:06.550Z,12.33
2018-04-29T06:47:34.687Z,15.47
2018-04-29T06:50:03.019Z,19.33
2018-04-29T06:52:32.569Z,19.30
2018-04-29T06:55:00.765Z,13.40
2018-04-29T06:57:28.895Z,21.03
2018-04-29T06:59:57.117Z,11.67
2018-04-29T07:02:25.197Z,12.40
2018-04-29T07:04:53.480Z,11.23
2018-04-29T07:07:21.816Z,15.97
2018-04-29T07:09:49.962Z,11.17
2018-04-29T07:12:18.256Z,12.03
2018-04-29T07:14:46.371Z,17.40
2018-04-29T07:17:15.789Z,12.60
2018-04-29T07:19:45.842Z,14.33
2018-04-29T07:22:14.665Z,15.30
2018-04-29T07:24:43.823Z,14.90
2018-04-29T07:27:12.974Z,19.33
2018-04-29T07:29:42.777Z,14.90
2018-04-29T07:32:13.204Z,13.67
2018-04-29T07:34:42.485Z,11.53
2018-04-29T07:37:11.472Z,14.93
2018-04-29T07:39:39.786Z,18.00
2018-04-29T07:42:09.033Z,11.20
2018-04-29T07:44:37.232Z,20.90
2018-04-29T07:47:06.172Z,19.63
2018-04-29T07:49:34.420Z,13.37
2018-04-29T07:52:03.551Z,13.90
2018-04-29T07:54:32.283Z,13.43
2018-04-29T07:57:00.388Z,24.07
2018-04-29T07:59:28.720Z,15.60
2018-04-29T08:01:56.807Z,10.13
2018-04-29T08:04:25.101Z,14.70
2018-04-29T08:06:53.299Z,10.70
2018-04-29T08:09:22.072Z,12.23
2018-04-29T08:11:50.852Z,17.37
2018-04-29T08:14:19.643Z,12.60
2018-04-29T08:16:48.537Z,13.20
2018-04-29T08:19:17.988Z,9.40
2018-04-29T08:21:47.537Z,13.37
2018-04-29T08:24:16.970Z,14.30
2018-04-29T08:26:45.844Z,15.90
2018-04-29T08:29:13.988Z,11.53
2018-04-29T08:31:43.280Z,11.00
2018-04-29T08:34:11.575Z,10.97
2018-04-29T08:36:39.669Z,16.53
2018-04-29T08:39:08.148Z,9.87
2018-04-29T08:41:36.631Z,13.80
2018-04-29T08:44:04.714Z,13.37
2018-04-29T08:46:32.961Z,20.93
2018-04-29T08:49:01.769Z,18.73
2018-04-29T08:51:30.596Z,14.57
2018-04-29T08:53:59.937Z,13.00
2018-04-29T08:56:28.716Z,14.20
2018-04-29T08:58:57.204Z,10.77
2018-04-29T09:01:25.332Z,13.37
2018-04-29T09:03:53.775Z,16.17
2018-04-29T09:06:21.765Z,16.13
2018-04-29T09:08:55.328Z,15.57
2018-04-29T09:11:24.200Z,12.60
2018-04-29T09:13:52.313Z,15.40
2018-04-29T09:16:20.404Z,12.90
2018-04-29T09:18:48.701Z,14.20
2018-04-29T09:21:17.661Z,17.60
2018-04-29T09:23:46.769Z,12.30
2018-04-29T09:26:15.412Z,10.60
2018-04-29T09:28:43.683Z,12.10
2018-04-29T09:31:11.812Z,10.90
2018-04-29T09:33:40.012Z,15.53
2018-04-29T09:36:09.553Z,10.90
2018-04-29T09:38:37.853Z,10.33
2018-04-29T09:41:06.216Z,11.43
2018-04-29T09:43:38.360Z,13.23
2018-04-29T09:46:07.345Z,22.50
2018-04-29T09:48:35.781Z,33.83
2018-04-29T09:51:03.843Z,10.00
2018-04-29T09:53:32.031Z,7.37
2018-04-29T09:56:00.329Z,7.93
2018-04-29T09:58:30.760Z,7.37
2018-04-29T10:00:59.704Z,9.93
2018-04-29T10:03:27.941Z,9.53
2018-04-29T10:05:56.259Z,11.93
2018-04-29T10:08:24.479Z,11.47
2018-04-29T10:10:53.870Z,56.10
2018-04-29T10:13:22.245Z,51.17
2018-04-29T10:15:51.274Z,12.23
2018-04-29T10:18:19.644Z,11.63
2018-04-29T10:20:47.747Z,7.93
2018-04-29T10:23:17.604Z,8.47
2018-04-29T10:25:46.456Z,17.40
2018-04-29T10:28:15.180Z,9.57
2018-04-29T10:30:45.066Z,8.80
2018-04-29T10:33:13.756Z,6.40
2018-04-29T10:35:42.108Z,6.03
2018-04-29T10:38:10.208Z,5.50
2018-04-29T10:40:38.303Z,8.60
2018-04-29T10:43:06.387Z,6.87
2018-04-29T10:45:34.451Z,10.07
2018-04-29T10:48:03.530Z,6.37
2018-04-29T10:50:31.614Z,9.60
2018-04-29T10:52:59.708Z,7.43
2018-04-29T10:55:27.811Z,8.43
2018-04-29T10:57:55.864Z,9.00
2018-04-29T11:00:23.943Z,5.67
2018-04-29T11:02:52.046Z,6.07
2018-04-29T11:05:20.135Z,6.00
2018-04-29T11:10:27.450Z,5.53
2018-04-29T11:12:55.521Z,7.40
2018-04-29T11:15:24.000Z,7.30
2018-04-29T11:17:52.097Z,6.80
2018-04-29T11:20:20.177Z,5.70
2018-04-29T11:22:48.281Z,5.20
2018-04-29T11:25:17.335Z,10.07
2018-04-29T11:27:45.446Z,4.63
2018-04-29T11:30:20.781Z,7.50
2018-04-29T11:32:50.559Z,8.90
2018-04-29T11:35:20.300Z,8.00
2018-04-29T11:37:49.065Z,10.83
2018-04-29T11:40:18.809Z,13.30
2018-04-29T11:42:47.632Z,7.07
2018-04-29T11:45:16.507Z,8.47
2018-04-29T11:47:45.314Z,6.37
2018-04-29T11:50:16.817Z,6.47
2018-04-29T11:52:45.239Z,5.73
2018-04-29T11:55:13.695Z,5.50
2018-04-29T11:57:42.827Z,7.47
2018-04-29T12:00:12.039Z,8.70
2018-04-29T12:02:42.225Z,7.67
2018-04-29T12:05:11.161Z,7.70
2018-04-29T12:07:40.279Z,6.67
2018-04-29T12:10:09.385Z,4.70
2018-04-29T12:12:38.847Z,11.83
2018-04-29T12:15:07.748Z,5.10
2018-04-29T12:17:36.081Z,6.20
2018-04-29T12:20:05.818Z,6.83
2018-04-29T12:22:35.532Z,9.23
2018-04-29T12:25:05.521Z,5.40
2018-04-29T12:27:35.052Z,7.37
2018-04-29T12:30:04.072Z,9.73
2018-04-29T12:32:33.297Z,5.37
2018-04-29T12:35:01.461Z,9.33
2018-04-29T12:37:31.588Z,11.60
2018-04-29T12:40:01.112Z,5.53
2018-04-29T12:42:29.581Z,6.40
2018-04-29T12:45:02.964Z,6.67
2018-04-29T12:47:31.873Z,10.03
2018-04-29T12:50:02.307Z,6.03
2018-04-29T12:52:30.685Z,7.40
2018-04-29T12:54:59.983Z,7.57
2018-04-29T12:57:29.206Z,4.80
2018-04-29T12:59:59.170Z,6.10
2018-04-29T13:02:27.330Z,9.37
2018-04-29T13:04:55.511Z,8.43
2018-04-29T13:07:27.980Z,9.67
2018-04-29T13:09:56.299Z,13.43
2018-04-29T13:12:26.016Z,6.13
2018-04-29T13:14:58.463Z,10.13
2018-04-29T13:17:27.028Z,8.53
2018-04-29T13:19:56.050Z,5.20
2018-04-29T13:22:24.514Z,8.37
2018-04-29T13:24:52.762Z,7.83
2018-04-29T13:27:21.759Z,11.40
2018-04-29T13:29:50.788Z,10.83
2018-04-29T13:32:18.967Z,7.67
2018-04-29T13:34:47.761Z,4.87
2018-04-29T13:37:17.588Z,4.63
2018-04-29T13:39:47.396Z,9.00
2018-04-29T13:42:17.113Z,5.10
2018-04-29T13:44:45.987Z,5.57
2018-04-29T13:47:15.684Z,7.20
2018-04-29T13:49:44.139Z,4.47
2018-04-29T13:52:14.165Z,10.50
2018-04-29T13:54:42.274Z,3.73
2018-04-29T13:57:12.056Z,4.03
2018-04-29T13:59:40.855Z,5.60
2018-04-29T14:02:11.508Z,9.20
2018-04-29T14:04:39.680Z,5.60
2018-04-29T14:07:08.015Z,8.43
2018-04-29T14:09:36.869Z,10.43
2018-04-29T14:12:05.652Z,11.97
2018-04-29T14:14:34.440Z,9.20
2018-04-29T14:17:03.616Z,17.40
2018-04-29T14:19:31.692Z,7.50
2018-04-29T14:22:00.052Z,9.93
2018-04-29T14:24:28.860Z,10.20
2018-04-29T14:26:57.345Z,10.13
2018-04-29T14:29:27.044Z,5.70
2018-04-29T14:31:55.419Z,6.50
2018-04-29T14:34:24.209Z,11.10
2018-04-29T14:36:53.099Z,26.30
2018-04-29T14:39:21.440Z,32.00
2018-04-29T14:41:49.695Z,13.80
2018-04-29T14:44:17.940Z,8.10
2018-04-29T14:46:46.733Z,6.67
2018-04-29T14:49:15.816Z,6.73
2018-04-29T14:51:44.138Z,10.43
2018-04-29T14:54:12.304Z,7.90
2018-04-29T14:56:41.148Z,6.73
2018-04-29T14:59:09.436Z,11.93
2018-04-29T15:01:37.751Z,6.90
2018-04-29T15:04:05.832Z,9.00
2018-04-29T15:06:35.071Z,7.87
2018-04-29T15:09:03.995Z,9.83
2018-04-29T15:11:32.352Z,11.33
2018-04-29T15:14:01.656Z,11.93
2018-04-29T15:16:30.829Z,23.10
2018-04-29T15:18:59.876Z,17.17
2018-04-29T15:21:28.005Z,8.77
2018-04-29T15:23:56.292Z,15.87
2018-04-29T15:26:24.551Z,13.03
2018-04-29T15:28:52.956Z,9.40
2018-04-29T15:31:21.831Z,9.93
2018-04-29T15:33:49.951Z,10.23
2018-04-29T15:36:18.088Z,10.33
2018-04-29T15:38:47.184Z,12.93
2018-04-29T15:41:17.024Z,8.10
2018-04-29T15:43:45.643Z,11.90
2018-04-29T15:46:14.813Z,10.90
2018-04-29T15:48:42.908Z,8.40
2018-04-29T15:51:11.005Z,13.10
2018-04-29T15:53:39.322Z,9.50
2018-04-29T15:56:07.617Z,12.93
2018-04-29T15:58:35.717Z,12.83
2018-04-29T16:01:04.569Z,11.03
2018-04-29T16:03:32.754Z,17.57
2018-04-29T16:06:01.561Z,16.23
2018-04-29T16:08:34.096Z,15.70
2018-04-29T16:11:03.573Z,13.63
2018-04-29T16:13:31.681Z,13.50
2018-04-29T16:16:00.523Z,9.40
2018-04-29T16:18:28.588Z,10.97
2018-04-29T16:20:56.736Z,18.60
2018-04-29T16:23:24.843Z,34.57
2018-04-29T16:25:52.927Z,53.03
2018-04-29T16:28:21.010Z,20.47
2018-04-29T16:30:49.091Z,13.60
2018-04-29T16:33:18.493Z,13.20
2018-04-29T16:35:46.592Z,12.43
2018-04-29T16:38:14.792Z,20.00
2018-04-29T16:40:42.811Z,10.13
2018-04-29T16:43:11.604Z,24.53
2018-04-29T16:45:40.596Z,25.20
2018-04-29T16:48:08.701Z,19.60
2018-04-29T16:50:36.790Z,16.67
2018-04-29T16:53:04.913Z,12.30
2018-04-29T16:55:33.051Z,13.63
2018-04-29T16:58:01.341Z,17.13
2018-04-29T17:00:29.411Z,14.87
2018-04-29T17:02:57.535Z,12.00
2018-04-29T17:05:25.601Z,8.83
2018-04-29T17:07:53.713Z,10.10
2018-04-29T17:10:22.547Z,13.30
2018-04-29T17:12:50.899Z,19.70
2018-04-29T17:15:18.975Z,16.90
2018-04-29T17:17:47.591Z,11.20
2018-04-29T17:20:15.684Z,14.10
2018-04-29T17:22:44.821Z,10.97
2018-04-29T17:25:12.904Z,9.00
2018-04-29T17:27:40.969Z,11.30
2018-04-29T17:30:09.173Z,17.87
2018-04-29T17:32:37.467Z,12.30
2018-04-29T17:35:05.578Z,12.93
2018-04-29T17:37:33.678Z,13.57
2018-04-29T17:40:02.001Z,10.80
2018-04-29T17:42:30.092Z,16.53
2018-04-29T17:44:58.188Z,15.40
2018-04-29T17:47:26.295Z,20.77
2018-04-29T17:49:54.365Z,28.47
2018-04-29T17:52:22.648Z,18.10
2018-04-29T17:54:50.817Z,13.67
2018-04-29T17:57:19.543Z,47.60
2018-04-29T17:59:48.142Z,22.70
2018-04-29T18:02:16.281Z,11.27
2018-04-29T18:04:45.357Z,22.40
2018-04-29T18:07:15.228Z,16.33
2018-04-29T18:09:44.227Z,14.23
2018-04-29T18:12:12.401Z,11.77
2018-04-29T18:14:45.463Z,12.80
2018-04-29T18:17:15.931Z,21.13
2018-04-29T18:19:44.253Z,20.40
2018-04-29T18:22:12.921Z,9.70
2018-04-29T18:24:41.020Z,15.67
2018-04-29T18:27:09.885Z,14.80
2018-04-29T18:29:38.026Z,11.10
2018-04-29T18:32:06.100Z,13.27
2018-04-29T18:34:34.207Z,45.53
2018-04-29T18:37:02.285Z,18.87
2018-04-29T18:39:30.404Z,43.63
2018-04-29T18:41:59.663Z,33.27
2018-04-29T18:44:31.483Z,14.43
2018-04-29T18:47:01.995Z,8.73
2018-04-29T18:49:30.914Z,15.83
2018-04-29T18:51:59.005Z,15.50
2018-04-29T18:54:27.324Z,25.50
2018-04-29T18:56:55.416Z,32.40
2018-04-29T18:59:23.560Z,15.33
2018-04-29T19:01:53.521Z,10.97
2018-04-29T19:04:21.633Z,12.43
2018-04-29T19:06:50.718Z,11.90
2018-04-29T19:09:19.053Z,13.77
2018-04-29T19:11:47.347Z,17.13
2018-04-29T19:14:16.143Z,10.57
2018-04-29T19:16:44.359Z,9.33
2018-04-29T19:19:12.471Z,12.90
2018-04-29T19:21:40.545Z,13.10
2018-04-29T19:24:08.742Z,9.13
2018-04-29T19:26:36.696Z,9.47
2018-04-29T19:29:04.783Z,8.63
2018-04-29T19:31:32.983Z,8.50
2018-04-29T19:34:01.235Z,9.33
2018-04-29T19:36:29.331Z,12.13
2018-04-29T19:38:59.082Z,7.93
2018-04-29T19:41:27.420Z,8.27
2018-04-29T19:43:56.328Z,7.43
2018-04-29T19:46:24.376Z,5.87
2018-04-29T19:48:52.456Z,11.00
2018-04-29T19:51:21.310Z,8.73
2018-04-29T19:53:49.400Z,6.70
2018-04-29T19:56:18.216Z,7.70
2018-04-29T19:58:47.070Z,8.10
2018-04-29T20:01:15.168Z,9.33
2018-04-29T20:03:43.259Z,9.67
2018-04-29T20:06:11.558Z,6.47
2018-04-29T20:08:40.393Z,10.73
2018-04-29T20:11:08.496Z,10.23
2018-04-29T20:13:38.536Z,11.93
2018-04-29T20:16:06.618Z,6.43
2018-04-29T20:18:34.791Z,9.57
2018-04-29T20:21:02.824Z,10.50
2018-04-29T20:23:31.655Z,10.07
2018-04-29T20:25:59.736Z,5.90
2018-04-29T20:28:27.808Z,8.43
2018-04-29T20:30:55.884Z,8.27
2018-04-29T20:33:23.955Z,9.43
2018-04-29T20:35:52.044Z,10.40
2018-04-29T20:38:20.342Z,8.53
2018-04-29T20:40:49.212Z,12.23
2018-04-29T20:43:18.976Z,11.32
2018-04-29T20:45:47.041Z,9.13
2018-04-29T20:48:15.159Z,9.97
2018-04-29T20:50:43.239Z,7.93
2018-04-29T20:53:11.341Z,7.40
2018-04-29T20:55:40.381Z,5.83
2018-04-29T20:58:08.444Z,8.40
2018-04-29T21:00:36.599Z,8.93
2018-04-29T21:03:04.640Z,9.97
2018-04-29T21:05:32.739Z,9.80
2018-04-29T21:08:01.853Z,12.50
2018-04-29T21:10:29.832Z,8.07
2018-04-29T21:12:57.922Z,6.50
2018-04-29T21:15:25.996Z,11.00
2018-04-29T21:17:54.075Z,7.60
2018-04-29T21:20:22.159Z,10.73
2018-04-29T21:22:50.261Z,8.43
2018-04-29T21:25:18.337Z,10.60
2018-04-29T21:27:46.425Z,10.80
2018-04-29T21:30:14.494Z,8.23
2018-04-29T21:32:42.609Z,9.37
2018-04-29T21:35:11.387Z,14.20
2018-04-29T21:37:39.530Z,7.33
2018-04-29T21:40:07.656Z,12.90
2018-04-29T21:42:35.872Z,7.60
2018-04-29T21:45:04.143Z,8.47
2018-04-29T21:47:32.235Z,7.70
2018-04-29T21:50:00.359Z,11.83
2018-04-29T21:52:29.248Z,8.93
2018-04-29T21:54:57.333Z,7.27
2018-04-29T21:57:26.171Z,8.30
2018-04-29T21:59:54.449Z,12.00
2018-04-29T22:02:23.847Z,10.73
2018-04-29T22:04:51.930Z,16.73
2018-04-29T22:07:20.230Z,8.37
2018-04-29T22:09:48.320Z,11.20
2018-04-29T22:12:16.417Z,8.23
2018-04-29T22:14:44.732Z,15.47
2018-04-29T22:17:13.513Z,9.77
2018-04-29T22:19:41.812Z,7.27
2018-04-29T22:22:09.875Z,6.20
2018-04-29T22:24:38.360Z,9.70
2018-04-29T22:27:07.315Z,16.40
2018-04-29T22:29:35.455Z,9.63
2018-04-29T22:32:04.293Z,8.50
2018-04-29T22:34:32.384Z,13.63
2018-04-29T22:37:00.549Z,13.20
2018-04-29T22:39:29.568Z,13.80
2018-04-29T22:41:57.655Z,19.87
2018-04-29T22:44:25.919Z,25.73
2018-04-29T22:46:54.053Z,23.30
2018-04-29T22:49:22.354Z,34.40
2018-04-29T22:51:51.144Z,28.30
2018-04-29T22:54:19.920Z,42.43
2018-04-29T22:56:47.991Z,47.67
2018-04-29T22:59:16.191Z,38.47
2018-04-29T23:01:44.264Z,52.53
2018-04-29T23:04:13.124Z,51.30
2018-04-29T23:06:41.931Z,59.70
2018-04-29T23:09:11.285Z,57.47
2018-04-29T23:11:39.544Z,61.80
2018-04-29T23:14:08.447Z,66.53
2018-04-29T23:16:36.634Z,74.27
2018-04-29T23:19:04.912Z,78.70
2018-04-29T23:21:33.225Z,78.53
2018-04-29T23:24:01.307Z,80.07
2018-04-29T23:26:29.601Z,89.90
2018-04-29T23:28:57.663Z,89.13
2018-04-29T23:31:26.552Z,88.57
2018-04-29T23:33:54.978Z,98.27
2018-04-29T23:36:23.776Z,87.30
2018-04-29T23:38:52.578Z,87.80
2018-04-29T23:41:20.900Z,97.03
2018-04-29T23:43:49.015Z,92.73
2018-04-29T23:46:17.776Z,74.60
2018-04-29T23:48:46.587Z,60.13
2018-04-29T23:51:15.537Z,63.20
2018-04-29T23:53:44.375Z,55.70
2018-04-29T23:56:12.680Z,63.77
2018-04-29T23:58:40.767Z,62.83
